Time;durP1;ratioP1;P1;durP2;ratioP2;P2;SDS_P1;SDS_P2;PMS_P1;PMS_P2;Temp;Humidity;BMP_temperature;BMP_pressure;BME280_temperature;BME280_humidity;BME280_pressure;Samples;Min_cycle;Max_cycle;Signal;HPM_P1;HPM_P2
2022/01/13 00:01:54;;;;;;;20.40;8.20;;;;;;;-9.69;73.88;102900.00;105481;1273;61500;-79
2022/01/13 00:04:23;;;;;;;27.70;12.60;;;;;;;-9.70;73.65;102899.96;105530;1273;59818;-79
2022/01/13 00:06:52;;;;;;;25.80;10.50;;;;;;;-9.67;74.12;102901.46;105583;1273;75371;-79
2022/01/13 00:09:21;;;;;;;28.90;13.10;;;;;;;-9.65;73.77;102901.55;105424;1273;71805;-78
2022/01/13 00:11:51;;;;;;;28.80;12.50;;;;;;;-9.65;73.91;102908.61;105448;1273;71469;-82
2022/01/13 00:14:40;;;;;;;27.20;12.20;;;;;;;-9.66;73.47;102902.35;105618;1273;75807;-83
2022/01/13 00:17:44;;;;;;;14.40;7.50;;;;;;;-9.67;74.28;102910.55;105550;1273;61413;-82
2022/01/13 00:25:56;;;;;;;9.30;4.30;;;;;;;-9.78;74.34;102914.10;105605;1273;72269;-81
2022/01/13 00:28:25;;;;;;;24.70;12.00;;;;;;;-9.87;74.30;102914.52;105664;1273;69205;-83
2022/01/13 00:30:57;;;;;;;29.70;12.70;;;;;;;-9.92;74.32;102914.44;105580;1273;72118;-82
2022/01/13 00:33:26;;;;;;;25.90;11.20;;;;;;;-9.96;74.75;102911.93;105423;1273;60049;-76
2022/01/13 00:36:00;;;;;;;14.40;6.80;;;;;;;-9.97;74.26;102911.21;105448;1270;59661;-78
2022/01/13 00:38:32;;;;;;;15.30;7.90;;;;;;;-9.96;74.38;102910.92;105478;1270;74679;-81
2022/01/13 00:41:02;;;;;;;19.40;9.70;;;;;;;-9.97;74.32;102910.70;105454;1269;73250;-81
2022/01/13 00:43:36;;;;;;;29.60;12.00;;;;;;;-9.98;74.23;102911.15;105429;1272;69488;-84
2022/01/13 00:46:05;;;;;;;29.10;12.80;;;;;;;-9.95;75.61;102915.98;105329;1273;75124;-82
2022/01/13 00:48:35;;;;;;;29.00;12.80;;;;;;;-9.88;76.04;102915.16;105379;1270;62026;-82
2022/01/13 00:51:03;;;;;;;26.60;12.50;;;;;;;-9.81;75.65;102917.84;105489;1272;60392;-81
2022/01/13 00:53:32;;;;;;;31.10;13.90;;;;;;;-9.80;75.31;102918.90;105505;1273;75026;-79
2022/01/13 00:56:01;;;;;;;30.90;13.20;;;;;;;-9.74;75.44;102919.67;105538;1270;70500;-81
2022/01/13 00:58:33;;;;;;;31.80;14.50;;;;;;;-9.73;75.36;102923.42;105458;1273;69205;-84
2022/01/13 01:01:06;;;;;;;30.80;12.70;;;;;;;-9.74;75.63;102918.84;105424;1273;72332;-81
2022/01/13 01:03:36;;;;;;;27.70;12.50;;;;;;;-9.74;75.04;102919.69;105490;1272;60746;-82
2022/01/13 01:06:05;;;;;;;32.10;12.40;;;;;;;-9.69;75.55;102913.96;105003;1270;691261;-79
2022/01/13 01:08:34;;;;;;;31.20;14.00;;;;;;;-9.70;74.82;102905.83;105451;1270;73894;-82
2022/01/13 01:11:05;;;;;;;30.50;12.30;;;;;;;-9.69;74.69;102907.61;105381;1270;71166;-80
2022/01/13 01:13:35;;;;;;;27.30;12.10;;;;;;;-9.70;74.29;102900.48;105211;1273;69938;-80
2022/01/13 01:16:10;;;;;;;26.30;10.40;;;;;;;-9.67;74.10;102902.13;105346;1271;72586;-82
2022/01/13 01:29:25;;;;;;;28.20;11.90;;;;;;;-9.47;73.79;102889.18;106654;1273;68035;-77
2022/01/13 01:31:57;;;;;;;20.40;8.80;;;;;;;-9.38;73.64;102892.97;105506;1270;71545;-77
2022/01/13 01:37:03;;;;;;;24.00;11.80;;;;;;;-9.27;73.34;102897.16;105371;1271;61836;-76
2022/01/13 01:39:32;;;;;;;21.40;10.40;;;;;;;-9.18;73.28;102886.40;105453;1270;74292;-77
2022/01/13 01:42:01;;;;;;;31.60;9.70;;;;;;;-9.09;73.07;102885.08;105467;1270;72868;-75
2022/01/13 01:44:34;;;;;;;13.50;7.00;;;;;;;-8.99;72.58;102878.41;105402;1273;70205;-77
2022/01/13 01:47:04;;;;;;;22.40;10.90;;;;;;;-8.91;72.33;102879.79;105390;1270;71937;-81
2022/01/13 01:49:38;;;;;;;23.60;11.90;;;;;;;-8.84;72.37;102874.34;105297;1270;60010;-78
2022/01/13 01:52:11;;;;;;;26.80;12.60;;;;;;;-8.75;72.15;102877.90;105214;1270;61527;-77
2022/01/13 01:54:40;;;;;;;22.70;12.00;;;;;;;-8.71;72.01;102876.73;105219;1273;73351;-76
2022/01/13 01:57:10;;;;;;;29.40;12.90;;;;;;;-8.66;71.88;102876.96;105163;1273;70766;-80
2022/01/13 01:59:41;;;;;;;32.80;12.10;;;;;;;-8.66;71.69;102872.21;105383;1270;68886;-76
2022/01/13 02:02:13;;;;;;;31.20;13.50;;;;;;;-8.61;71.80;102871.08;105210;1270;71521;-77
2022/01/13 02:04:45;;;;;;;12.60;6.20;;;;;;;-8.56;71.95;102868.90;105200;1273;60755;-76
2022/01/13 02:07:14;;;;;;;9.80;5.90;;;;;;;-8.52;70.85;102875.49;105062;1273;60041;-74
2022/01/13 02:09:49;;;;;;;13.50;5.30;;;;;;;-8.62;70.87;102880.81;105233;1273;74361;-79
2022/01/13 02:12:32;;;;;;;26.30;12.10;;;;;;;-8.72;71.17;102882.27;105331;1273;71956;-80
2022/01/13 02:17:42;;;;;;;31.00;11.50;;;;;;;-8.86;71.55;102887.44;105330;1273;75499;-77
2022/01/13 02:20:17;;;;;;;32.70;12.30;;;;;;;-8.92;71.79;102889.20;105349;1273;60430;-79
2022/01/13 02:22:46;;;;;;;24.00;10.60;;;;;;;-8.90;71.91;102891.00;105384;1273;59549;-81
2022/01/13 02:25:17;;;;;;;14.40;6.30;;;;;;;-8.81;71.86;102882.39;105331;1274;74192;-73
2022/01/13 02:27:46;;;;;;;26.40;12.00;;;;;;;-8.77;71.92;102879.87;105320;1273;70731;-74
2022/01/13 02:30:15;;;;;;;28.20;13.30;;;;;;;-8.72;71.86;102876.85;105393;1273;68544;-75
2022/01/13 02:32:44;;;;;;;33.00;13.30;;;;;;;-8.64;72.04;102873.62;105345;1273;71666;-74
2022/01/13 02:35:13;;;;;;;12.00;5.90;;;;;;;-8.53;71.90;102871.86;105298;1273;59930;-74
2022/01/13 02:37:42;;;;;;;18.70;7.50;;;;;;;-8.45;71.42;102871.36;105354;1273;59900;-72
2022/01/13 02:40:12;;;;;;;26.80;12.70;;;;;;;-8.44;71.20;102863.63;105398;1273;72079;-73
2022/01/13 02:42:41;;;;;;;32.90;13.90;;;;;;;-8.36;71.58;102869.68;105404;1273;70482;-73
2022/01/13 02:45:16;;;;;;;29.60;12.20;;;;;;;-8.24;72.19;102873.52;105380;1273;69223;-78
2022/01/13 02:50:14;;;;;;;27.80;10.30;;;;;;;-8.10;70.96;102880.14;105297;1273;60702;-75
2022/01/13 02:52:43;;;;;;;17.30;8.20;;;;;;;-8.00;70.86;102878.84;105367;1273;59887;-78
2022/01/13 02:55:12;;;;;;;31.60;12.90;;;;;;;-7.98;70.59;102871.65;105387;1273;74223;-78
2022/01/13 02:57:41;;;;;;;25.10;9.60;;;;;;;-7.93;70.33;102871.02;105442;1273;72146;-79
2022/01/13 03:00:14;;;;;;;26.30;11.00;;;;;;;-7.96;70.10;102884.42;105395;1273;70787;-75
2022/01/13 03:02:46;;;;;;;25.10;11.30;;;;;;;-7.98;70.54;102880.81;105384;1273;72840;-76
2022/01/13 03:05:16;;;;;;;22.90;9.30;;;;;;;-7.94;70.22;102884.66;105238;1273;59991;-75
2022/01/13 03:07:45;;;;;;;19.50;6.50;;;;;;;-7.88;69.62;102876.26;105407;1273;60650;-77
2022/01/13 03:10:14;;;;;;;23.50;10.60;;;;;;;-7.92;69.42;102879.67;105264;1274;74713;-76
2022/01/13 03:12:45;;;;;;;6.00;3.80;;;;;;;-7.96;69.62;102881.19;105399;1273;73829;-79
2022/01/13 03:15:14;;;;;;;30.20;12.30;;;;;;;-8.04;69.59;102872.44;105301;1274;68753;-78
2022/01/13 03:17:43;;;;;;;12.60;7.00;;;;;;;-8.02;69.84;102870.66;105340;1273;72451;-77
2022/01/13 03:20:13;;;;;;;28.50;12.10;;;;;;;-7.94;69.40;102870.45;105361;1273;59689;-80
2022/01/13 03:22:42;;;;;;;27.80;12.50;;;;;;;-7.93;69.24;102868.46;105373;1273;61455;-80
2022/01/13 03:25:12;;;;;;;8.10;4.50;;;;;;;-7.91;69.55;102859.25;105373;1273;75447;-80
2022/01/13 03:27:41;;;;;;;35.30;14.70;;;;;;;-7.89;69.01;102859.64;105375;1273;71023;-79
2022/01/13 03:30:12;;;;;;;32.30;11.50;;;;;;;-7.87;69.40;102858.20;105366;1273;71073;-79
2022/01/13 03:32:41;;;;;;;28.90;11.60;;;;;;;-7.87;69.15;102857.02;105321;1272;75030;-76
2022/01/13 03:35:10;;;;;;;7.00;4.10;;;;;;;-7.85;69.14;102855.76;105330;1273;61316;-76
2022/01/13 03:37:39;;;;;;;26.60;10.70;;;;;;;-7.86;68.99;102849.80;105280;1273;61188;-77
2022/01/13 03:40:09;;;;;;;29.30;12.10;;;;;;;-7.90;69.23;102848.79;105335;1273;73311;-77
2022/01/13 03:42:38;;;;;;;31.20;13.30;;;;;;;-7.86;68.87;102844.70;105516;1272;71448;-76
2022/01/13 03:45:09;;;;;;;33.80;14.80;;;;;;;-7.91;69.56;102846.55;106034;1273;69226;-80
2022/01/13 03:47:38;;;;;;;29.70;14.40;;;;;;;-7.88;69.50;102842.60;105462;1273;72153;-80
2022/01/13 03:50:08;;;;;;;30.30;12.30;;;;;;;-7.93;69.41;102845.66;105373;1272;62400;-80
2022/01/13 03:52:59;;;;;;;14.30;6.70;;;;;;;-7.98;69.29;102848.14;105325;1273;62447;-80
2022/01/13 03:55:39;;;;;;;20.20;9.00;;;;;;;-8.05;69.15;102854.46;105447;1273;74531;-78
2022/01/13 03:58:45;;;;;;;18.90;8.80;;;;;;;-8.11;69.17;102854.58;105294;1273;71425;-80
2022/01/13 04:01:41;;;;;;;32.60;13.10;;;;;;;-8.13;69.31;102844.56;105251;1273;68704;-80
2022/01/13 04:04:10;;;;;;;27.10;11.60;;;;;;;-8.14;69.57;102843.81;105384;1273;74194;-78
2022/01/13 04:06:43;;;;;;;21.10;10.40;;;;;;;-8.21;69.26;102848.95;105374;1273;63625;-79
2022/01/13 04:09:55;;;;;;;30.40;13.90;;;;;;;-8.22;69.35;102857.73;105375;1273;60834;-80
2022/01/13 04:12:27;;;;;;;26.90;11.60;;;;;;;-8.26;69.12;102855.71;105415;1270;75151;-79
2022/01/13 04:15:02;;;;;;;15.70;8.00;;;;;;;-8.30;69.04;102848.94;105297;1273;71839;-74
2022/01/13 04:17:31;;;;;;;23.50;11.80;;;;;;;-8.36;69.30;102846.04;105380;1273;70245;-79
2022/01/13 04:20:01;;;;;;;23.50;10.20;;;;;;;-8.42;69.71;102848.18;105384;1270;74368;-71
2022/01/13 04:22:30;;;;;;;22.10;9.80;;;;;;;-8.41;69.58;102858.52;105363;1273;61451;-76
2022/01/13 04:24:59;;;;;;;22.70;10.10;;;;;;;-8.43;69.75;102860.14;105410;1273;61765;-74
2022/01/13 04:27:35;;;;;;;35.30;14.50;;;;;;;-8.46;69.71;102859.33;105401;1273;76178;-76
2022/01/13 04:32:44;;;;;;;28.80;12.80;;;;;;;-8.49;70.27;102855.31;105426;1273;71261;-78
2022/01/13 04:35:14;;;;;;;26.30;11.00;;;;;;;-8.42;70.28;102859.98;105430;1270;74144;-75
2022/01/13 04:37:43;;;;;;;29.90;12.90;;;;;;;-8.35;70.75;102857.90;105455;1268;63498;-71
2022/01/13 04:40:13;;;;;;;30.10;14.10;;;;;;;-8.31;70.60;102859.91;105564;1270;60960;-76
2022/01/13 04:42:52;;;;;;;29.10;13.40;;;;;;;-8.33;70.08;102860.48;105386;1270;75775;-75
2022/01/13 04:45:25;;;;;;;32.40;14.40;;;;;;;-8.43;69.92;102851.68;105530;1270;72895;-79
2022/01/13 04:47:56;;;;;;;37.10;15.00;;;;;;;-8.51;70.05;102851.85;105482;1270;71364;-77
2022/01/13 04:50:25;;;;;;;34.50;14.80;;;;;;;-8.59;70.11;102849.85;105429;1273;71878;-80
2022/01/13 04:52:54;;;;;;;32.00;13.10;;;;;;;-8.64;70.57;102853.73;105330;1270;60680;-80
2022/01/13 04:55:30;;;;;;;12.10;5.90;;;;;;;-8.68;70.69;102855.05;105221;1273;59702;-81
2022/01/13 04:58:02;;;;;;;25.40;10.00;;;;;;;-8.69;70.53;102857.57;105221;1273;72024;-82
2022/01/13 05:00:33;;;;;;;37.40;14.20;;;;;;;-8.67;70.49;102854.42;105309;1270;70556;-82
2022/01/13 05:03:02;;;;;;;33.80;15.50;;;;;;;-8.68;70.36;102856.93;105309;1270;68884;-77
2022/01/13 05:05:31;;;;;;;31.30;13.30;;;;;;;-8.71;70.23;102848.67;105192;1273;74679;-81
2022/01/13 05:08:00;;;;;;;28.20;12.20;;;;;;;-8.74;70.21;102861.74;105118;1273;62023;-81
2022/01/13 05:10:30;;;;;;;22.80;9.10;;;;;;;-8.77;70.39;102867.19;105327;1273;63168;-78
2022/01/13 05:12:58;;;;;;;27.80;13.10;;;;;;;-8.79;70.67;102868.66;105352;1272;74837;-79
2022/01/13 05:15:28;;;;;;;29.90;12.00;;;;;;;-8.73;70.68;102872.25;105241;1271;73534;-85
2022/01/13 05:20:51;;;;;;;41.40;15.10;;;;;;;-8.74;70.44;102860.40;105179;1273;71614;-76
2022/01/13 05:23:20;;;;;;;37.80;16.60;;;;;;;-8.76;70.51;102848.98;105251;1270;61281;-83
2022/01/13 05:25:49;;;;;;;32.70;13.40;;;;;;;-8.74;70.29;102844.00;105318;1270;61017;-75
2022/01/13 05:28:18;;;;;;;35.50;14.90;;;;;;;-8.71;71.08;102848.52;105298;1272;73583;-74
2022/01/13 05:30:47;;;;;;;39.60;15.70;;;;;;;-8.70;70.69;102838.75;105436;1270;71242;-81
2022/01/13 05:33:16;;;;;;;40.40;16.80;;;;;;;-8.75;70.69;102841.41;105386;1270;71960;-75
2022/01/13 05:35:45;;;;;;;33.90;14.80;;;;;;;-8.74;70.77;102849.38;105418;1270;71489;-73
2022/01/13 05:38:14;;;;;;;26.60;12.00;;;;;;;-8.79;71.19;102851.07;105307;1273;60500;-74
2022/01/13 05:40:43;;;;;;;39.10;17.40;;;;;;;-8.78;70.95;102860.90;105383;1270;59035;-76
2022/01/13 05:43:12;;;;;;;51.20;19.30;;;;;;;-8.78;70.76;102869.50;105441;1270;71470;-78
2022/01/13 05:45:41;;;;;;;41.30;17.70;;;;;;;-8.83;73.19;102858.17;105340;1273;71840;-75
2022/01/13 05:48:10;;;;;;;39.90;17.20;;;;;;;-8.79;71.54;102854.79;105343;1273;69760;-78
2022/01/13 05:50:39;;;;;;;35.90;14.60;;;;;;;-8.89;71.78;102852.84;105356;1270;73511;-74
2022/01/13 05:53:08;;;;;;;39.60;17.10;;;;;;;-8.98;72.19;102861.61;105383;1273;59707;-75
2022/01/13 05:55:39;;;;;;;42.60;17.20;;;;;;;-9.00;71.56;102863.34;105433;1273;61587;-74
2022/01/13 05:58:08;;;;;;;53.10;21.70;;;;;;;-9.04;72.19;102863.68;105386;1270;73572;-75
2022/01/13 06:00:38;;;;;;;40.00;15.70;;;;;;;-9.07;71.94;102849.05;105679;1270;70012;-75
2022/01/13 06:03:07;;;;;;;19.50;9.50;;;;;;;-9.06;71.53;102848.27;105395;1273;68830;-72
2022/01/13 06:05:37;;;;;;;32.40;13.80;;;;;;;-9.09;71.41;102856.58;105347;1273;72817;-80
2022/01/13 06:08:06;;;;;;;39.10;15.30;;;;;;;-9.15;71.48;102856.48;105377;1272;64555;-71
2022/01/13 06:10:38;;;;;;;26.60;10.60;;;;;;;-9.17;71.53;102852.01;105353;1273;61034;-81
2022/01/13 06:13:07;;;;;;;44.20;18.50;;;;;;;-9.18;72.20;102850.45;105341;1273;73133;-76
2022/01/13 06:15:37;;;;;;;35.70;16.40;;;;;;;-9.16;72.45;102846.84;105301;1270;70545;-77
2022/01/13 06:18:15;;;;;;;44.80;19.40;;;;;;;-9.09;72.05;102843.41;105285;1273;70313;-73
2022/01/13 06:20:44;;;;;;;19.80;8.20;;;;;;;-9.04;71.97;102841.05;105346;1273;72113;-77
2022/01/13 06:23:15;;;;;;;24.40;9.90;;;;;;;-9.08;71.85;102836.36;105426;1273;62327;-76
2022/01/13 06:25:44;;;;;;;34.90;14.20;;;;;;;-9.13;71.86;102825.86;105369;1273;59540;-76
2022/01/13 06:28:13;;;;;;;38.60;17.70;;;;;;;-9.12;72.22;102816.96;105299;1271;71839;-77
2022/01/13 06:30:43;;;;;;;50.20;22.80;;;;;;;-9.08;72.72;102808.52;105247;1270;71595;-78
2022/01/13 06:33:11;;;;;;;39.10;18.50;;;;;;;-9.02;72.18;102812.27;105319;1271;72156;-77
2022/01/13 06:35:40;;;;;;;46.90;20.00;;;;;;;-8.95;72.01;102806.34;105288;1274;72695;-78
2022/01/13 06:38:09;;;;;;;36.30;16.20;;;;;;;-8.93;71.88;102796.44;105217;1273;62405;-77
2022/01/13 06:40:39;;;;;;;15.40;6.90;;;;;;;-8.87;71.70;102786.90;105256;1273;61159;-74
2022/01/13 06:43:08;;;;;;;30.50;12.50;;;;;;;-8.88;71.28;102785.20;105265;1271;76528;-75
2022/01/13 06:45:36;;;;;;;25.90;10.70;;;;;;;-8.89;71.34;102792.23;105221;1273;72453;-75
2022/01/13 06:48:05;;;;;;;33.20;13.40;;;;;;;-8.90;71.29;102792.00;105375;1271;71398;-76
2022/01/13 06:50:35;;;;;;;38.00;17.00;;;;;;;-8.95;71.52;102789.60;105228;1273;73277;-77
2022/01/13 06:53:04;;;;;;;28.80;12.80;;;;;;;-8.89;71.39;102789.86;107207;1270;59909;-78
2022/01/13 06:55:33;;;;;;;39.90;18.10;;;;;;;-8.87;71.66;102780.83;105376;1273;59844;-78
2022/01/13 06:58:03;;;;;;;45.30;19.80;;;;;;;-8.80;71.56;102782.45;105319;1273;73527;-78
2022/01/13 07:00:33;;;;;;;45.20;19.70;;;;;;;-8.69;72.04;102784.23;105544;1270;70535;-79
2022/01/13 07:03:03;;;;;;;36.50;16.30;;;;;;;-8.55;71.21;102793.56;105382;1271;69153;-77
2022/01/13 07:05:33;;;;;;;40.30;18.80;;;;;;;-8.46;71.14;102792.09;105365;1270;75058;-76
2022/01/13 07:08:03;;;;;;;24.60;11.50;;;;;;;-8.38;70.62;102788.69;105327;1272;63498;-75
2022/01/13 07:10:32;;;;;;;40.90;17.90;;;;;;;-8.28;70.49;102799.99;105405;1270;59460;-73
2022/01/13 07:13:01;;;;;;;44.00;18.00;;;;;;;-8.21;69.98;102803.63;105329;1270;73615;-75
2022/01/13 07:15:32;;;;;;;44.50;19.00;;;;;;;-8.12;70.14;102812.12;105289;1273;70020;-76
2022/01/13 07:18:01;;;;;;;47.00;19.90;;;;;;;-8.02;69.91;102812.81;105284;1273;68097;-76
2022/01/13 07:20:30;;;;;;;44.80;18.30;;;;;;;-7.94;69.79;102804.34;105243;1273;72514;-78
2022/01/13 07:22:59;;;;;;;46.80;19.20;;;;;;;-7.89;69.43;102800.77;105234;1273;59974;-80
2022/01/13 07:25:28;;;;;;;51.00;21.30;;;;;;;-7.83;69.30;102793.23;105253;1273;59513;-74
2022/01/13 07:27:58;;;;;;;43.90;21.00;;;;;;;-7.78;69.01;102789.86;105265;1273;72176;-74
2022/01/13 07:30:27;;;;;;;30.80;14.00;;;;;;;-7.69;68.69;102796.43;105411;1271;70616;-69
2022/01/13 07:32:57;;;;;;;18.20;10.40;;;;;;;-7.69;68.53;102808.43;105447;1270;68054;-71
2022/01/13 07:35:26;;;;;;;38.50;13.90;;;;;;;-7.75;68.87;102809.95;105261;1273;73635;-73
2022/01/13 07:37:56;;;;;;;35.30;16.10;;;;;;;-7.75;69.27;102798.09;105130;1271;59812;-72
2022/01/13 07:40:25;;;;;;;23.60;11.10;;;;;;;-7.78;69.48;102792.73;107538;1270;60611;-70
2022/01/13 07:42:53;;;;;;;18.60;10.10;;;;;;;-7.75;69.74;102787.95;107521;1273;74991;-72
2022/01/13 07:45:22;;;;;;;37.10;14.30;;;;;;;-7.76;69.95;102778.23;107609;1270;73872;-72
2022/01/13 07:47:51;;;;;;;44.40;19.20;;;;;;;-7.66;70.15;102774.89;105487;1271;70001;-71
2022/01/13 07:50:21;;;;;;;45.40;19.80;;;;;;;-7.54;69.93;102773.13;105222;1273;73511;-72
2022/01/13 07:52:50;;;;;;;20.30;9.30;;;;;;;-7.37;68.74;102775.73;105424;1269;61329;-73
2022/01/13 07:55:19;;;;;;;32.80;14.20;;;;;;;-7.20;67.37;102776.30;105153;1273;61069;-70
2022/01/13 07:57:48;;;;;;;49.30;21.30;;;;;;;-7.16;67.81;102783.38;105625;1270;75334;-72
2022/01/13 08:00:17;;;;;;;42.70;19.60;;;;;;;-7.06;68.27;102793.37;105172;1271;73062;-72
2022/01/13 08:02:46;;;;;;;43.70;20.30;;;;;;;-6.87;68.81;102785.02;105264;1270;70507;-74
2022/01/13 08:05:15;;;;;;;30.60;12.40;;;;;;;-6.65;69.28;102779.44;105113;1273;73753;-76
2022/01/13 08:07:44;;;;;;;45.00;18.90;;;;;;;-6.50;68.05;102781.62;105102;1273;59919;-73
2022/01/13 08:10:14;;;;;;;29.50;13.10;;;;;;;-6.40;67.48;102780.90;105175;1274;59438;-73
2022/01/13 08:12:43;;;;;;;38.90;17.50;;;;;;;-6.34;67.53;102779.36;105080;1276;73167;-73
2022/01/13 08:15:15;;;;;;;43.60;20.50;;;;;;;-6.22;67.57;102778.39;105232;1273;72944;-74
2022/01/13 08:20:34;;;;;;;41.80;17.80;;;;;;;-6.05;65.98;102774.83;105125;1273;75439;-75
2022/01/13 08:23:03;;;;;;;34.10;15.70;;;;;;;-6.03;65.51;102773.00;105149;1273;60212;-71
2022/01/13 08:25:32;;;;;;;30.70;14.50;;;;;;;-6.02;65.01;102769.62;105139;1273;60175;-74
2022/01/13 08:28:02;;;;;;;44.80;19.80;;;;;;;-6.03;64.92;102761.62;105176;1273;73195;-74
2022/01/13 08:30:40;;;;;;;33.20;15.90;;;;;;;-6.05;65.68;102767.34;105172;1273;70994;-76
2022/01/13 08:33:09;;;;;;;42.30;18.30;;;;;;;-5.97;65.33;102767.89;105147;1273;71675;-70
2022/01/13 08:35:43;;;;;;;38.90;18.00;;;;;;;-5.96;65.67;102766.77;105195;1273;74476;-73
2022/01/13 08:38:18;;;;;;;39.30;18.90;;;;;;;-5.87;65.67;102776.83;105188;1273;62023;-72
2022/01/13 08:40:54;;;;;;;46.80;19.40;;;;;;;-5.78;65.48;102784.55;105269;1270;59772;-73
2022/01/13 08:43:26;;;;;;;41.40;17.60;;;;;;;-5.73;65.31;102772.63;105151;1273;73373;-75
2022/01/13 08:45:56;;;;;;;36.70;14.70;;;;;;;-5.71;65.01;102767.08;105148;1273;71021;-72
2022/01/13 08:48:26;;;;;;;39.90;18.20;;;;;;;-5.63;65.45;102764.94;105223;1273;71073;-74
2022/01/13 08:50:56;;;;;;;31.90;14.60;;;;;;;-5.52;64.77;102754.52;105231;1270;73900;-73
2022/01/13 08:53:25;;;;;;;39.00;17.40;;;;;;;-5.49;64.74;102742.21;105210;1272;62934;-72
2022/01/13 08:55:55;;;;;;;50.70;20.40;;;;;;;-5.42;64.95;102734.59;105249;1273;62441;-72
2022/01/13 08:58:24;;;;;;;26.60;12.90;;;;;;;-5.33;64.58;102724.61;105205;1270;74086;-73
2022/01/13 09:00:56;;;;;;;35.80;17.20;;;;;;;-5.23;64.06;102724.52;105280;1270;72554;-72
2022/01/13 09:03:25;;;;;;;25.70;13.60;;;;;;;-5.18;64.07;102716.32;105221;1273;68960;-73
2022/01/13 09:05:54;;;;;;;19.70;10.40;;;;;;;-5.05;63.71;102701.36;106198;1272;72922;-72
2022/01/13 09:08:23;;;;;;;25.90;12.60;;;;;;;-5.03;63.60;102692.89;105189;1273;59949;-72
2022/01/13 09:10:52;;;;;;;50.10;20.30;;;;;;;-5.00;63.83;102681.24;105367;1273;60168;-73
2022/01/13 09:13:22;;;;;;;23.50;11.00;;;;;;;-4.90;63.58;102674.86;105286;1273;72904;-74
2022/01/13 09:15:59;;;;;;;26.10;11.50;;;;;;;-4.86;63.09;102666.27;105210;1273;72986;-74
2022/01/13 09:18:45;;;;;;;34.50;14.30;;;;;;;-4.88;63.06;102662.14;105213;1273;69347;-73
2022/01/13 09:21:17;;;;;;;36.50;15.10;;;;;;;-4.78;61.73;102654.05;105364;1270;75250;-73
2022/01/13 09:23:46;;;;;;;32.80;14.20;;;;;;;-4.87;61.88;102639.39;105320;1273;61218;-72
2022/01/13 09:26:16;;;;;;;20.50;10.70;;;;;;;-4.82;61.84;102630.99;105385;1272;58048;-72
2022/01/13 09:28:45;;;;;;;51.50;19.90;;;;;;;-4.81;61.96;102632.90;105346;1273;73556;-76
2022/01/13 09:31:14;;;;;;;34.10;14.00;;;;;;;-4.72;61.87;102626.79;105312;1273;70532;-71
2022/01/13 09:33:44;;;;;;;19.40;9.50;;;;;;;-4.70;61.71;102629.20;105386;1271;69282;-72
2022/01/13 09:36:13;;;;;;;32.30;10.00;;;;;;;-4.60;60.22;102630.61;105426;1273;72179;-70
2022/01/13 09:38:42;;;;;;;20.90;8.70;;;;;;;-4.54;60.10;102619.17;105355;1271;59584;-74
2022/01/13 09:41:13;;;;;;;22.70;10.30;;;;;;;-4.46;59.62;102612.52;105367;1273;60811;-71
2022/01/13 09:43:45;;;;;;;25.80;10.60;;;;;;;-4.37;59.42;102601.66;105164;1273;73745;-71
2022/01/13 09:46:16;;;;;;;27.70;12.20;;;;;;;-4.30;59.75;102603.66;105378;1271;69341;-73
2022/01/13 09:48:46;;;;;;;30.10;14.70;;;;;;;-4.23;59.80;102608.39;105310;1273;71249;-73
2022/01/13 09:51:15;;;;;;;27.40;12.20;;;;;;;-4.14;59.43;102606.51;105361;1273;72689;-73
2022/01/13 09:53:44;;;;;;;22.40;10.40;;;;;;;-4.11;59.38;102604.86;105348;1273;59703;-74
2022/01/13 09:56:13;;;;;;;20.70;10.90;;;;;;;-3.94;58.90;102608.74;105374;1270;59264;-74
2022/01/13 09:58:44;;;;;;;20.30;9.70;;;;;;;-3.85;58.42;102606.52;105301;1273;71957;-75
2022/01/13 10:01:15;;;;;;;18.60;10.20;;;;;;;-3.80;57.69;102612.41;105239;1273;70585;-76
2022/01/13 10:03:45;;;;;;;30.70;15.20;;;;;;;-3.84;57.70;102609.09;105225;1273;68972;-76
2022/01/13 10:06:17;;;;;;;27.40;9.00;;;;;;;-3.63;57.37;102614.39;105235;1273;74063;-74
2022/01/13 10:08:58;;;;;;;33.90;14.40;;;;;;;-3.43;57.05;102613.17;105263;1273;61061;-74
2022/01/13 10:11:43;;;;;;;30.70;11.30;;;;;;;-3.22;54.70;102610.95;105204;1273;61219;-76
2022/01/13 10:17:01;;;;;;;28.10;12.10;;;;;;;-3.13;56.87;102606.48;105245;1273;70716;-75
2022/01/13 10:19:33;;;;;;;26.80;12.20;;;;;;;-2.94;55.44;102606.08;105346;1273;70576;-71
2022/01/13 10:22:23;;;;;;;29.90;14.60;;;;;;;-2.88;54.95;102600.34;105359;1273;75070;-72
2022/01/13 10:24:56;;;;;;;32.40;13.90;;;;;;;-2.76;55.99;102582.60;105355;1273;60228;-73
2022/01/13 10:27:36;;;;;;;20.50;9.90;;;;;;;-2.54;54.45;102578.07;105303;1273;60229;-75
2022/01/13 10:30:18;;;;;;;28.40;11.30;;;;;;;-2.37;52.10;102590.38;105432;1273;73263;-76
2022/01/13 10:32:47;;;;;;;28.40;11.70;;;;;;;-2.47;52.82;102583.62;105268;1274;71150;-75
2022/01/13 10:35:22;;;;;;;27.40;12.00;;;;;;;-2.24;51.91;102577.55;105377;1273;70733;-72
2022/01/13 10:37:58;;;;;;;27.10;12.10;;;;;;;-2.33;52.41;102562.11;105377;1272;75043;-75
2022/01/13 10:40:38;;;;;;;22.00;10.40;;;;;;;-2.21;52.62;102563.59;105325;1273;59609;-74
2022/01/13 10:43:10;;;;;;;27.10;11.80;;;;;;;-2.11;52.15;102551.22;105363;1273;61515;-74
2022/01/13 10:45:59;;;;;;;32.10;16.00;;;;;;;-1.99;53.00;102543.82;105246;1273;74074;-74
2022/01/13 10:48:34;;;;;;;31.00;13.80;;;;;;;-1.75;52.12;102537.19;105201;1273;72401;-74
2022/01/13 10:51:07;;;;;;;36.00;15.00;;;;;;;-1.63;51.79;102530.27;105238;1273;71599;-76
2022/01/13 10:53:42;;;;;;;28.50;12.60;;;;;;;-1.46;52.46;102521.50;105224;1273;74788;-73
2022/01/13 10:56:18;;;;;;;26.20;11.60;;;;;;;-1.20;49.15;102513.95;105205;1273;60497;-72
2022/01/13 10:58:54;;;;;;;21.30;11.20;;;;;;;-1.56;50.54;102500.60;105124;1273;58978;-73
2022/01/13 11:01:35;;;;;;;29.20;14.50;;;;;;;-1.66;50.69;102497.27;105221;1273;74634;-74
2022/01/13 11:04:16;;;;;;;27.50;12.10;;;;;;;-2.04;50.95;102493.75;105182;1273;72456;-75
2022/01/13 11:06:45;;;;;;;28.90;12.40;;;;;;;-1.80;51.21;102491.38;105237;1273;69196;-72
2022/01/13 11:09:18;;;;;;;33.00;13.70;;;;;;;-1.42;50.80;102487.34;105219;1273;73803;-71
2022/01/13 11:11:58;;;;;;;20.80;9.90;;;;;;;-1.17;49.03;102482.00;105184;1273;59925;-71
2022/01/13 11:14:27;;;;;;;26.20;13.50;;;;;;;-0.99;48.22;102482.59;105102;1274;60895;-71
2022/01/13 11:16:59;;;;;;;32.60;15.00;;;;;;;-1.00;49.04;102478.66;105206;1273;72766;-74
2022/01/13 11:19:28;;;;;;;37.40;17.40;;;;;;;-1.00;48.98;102478.14;105216;1273;72455;-74
2022/01/13 11:22:01;;;;;;;31.40;15.30;;;;;;;-0.93;49.62;102482.44;105192;1273;71254;-73
2022/01/13 11:24:30;;;;;;;30.50;14.80;;;;;;;-0.91;50.04;102482.10;105149;1273;73536;-76
2022/01/13 11:27:01;;;;;;;31.60;15.80;;;;;;;-0.77;49.98;102474.63;105162;1273;59980;-73
2022/01/13 11:29:31;;;;;;;31.50;16.30;;;;;;;-0.74;48.41;102468.48;105362;1271;61451;-72
2022/01/13 11:32:01;;;;;;;21.60;11.00;;;;;;;-0.92;48.55;102462.77;105218;1273;73149;-73
2022/01/13 11:34:31;;;;;;;47.80;18.90;;;;;;;-0.83;47.63;102455.27;105384;1273;72367;-73
2022/01/13 11:37:00;;;;;;;23.50;11.60;;;;;;;-0.95;48.20;102440.52;105248;1273;70733;-73
2022/01/13 11:39:47;;;;;;;34.10;17.00;;;;;;;-1.09;48.17;102433.46;105214;1273;74510;-73
2022/01/13 11:42:18;;;;;;;31.60;15.20;;;;;;;-1.29;48.80;102427.41;105159;1271;60472;-74
2022/01/13 11:45:16;;;;;;;31.50;15.60;;;;;;;-1.39;49.77;102424.98;105160;1273;60933;-73
2022/01/13 11:47:46;;;;;;;32.30;15.20;;;;;;;-1.47;49.80;102405.46;105182;1273;74949;-74
2022/01/13 11:50:30;;;;;;;38.20;16.40;;;;;;;-1.44;50.08;102389.23;105217;1273;69798;-70
2022/01/13 11:52:59;;;;;;;38.20;15.20;;;;;;;-1.29;50.34;102383.83;105164;1273;68074;-70
2022/01/13 11:55:38;;;;;;;33.10;16.20;;;;;;;-1.08;49.08;102374.30;105145;1273;74010;-76
2022/01/13 11:58:38;;;;;;;26.90;12.10;;;;;;;-1.09;48.42;102370.38;105154;1273;59647;-73